createdAt,value
2018-01-27T00:01:09.406Z,27.10
2018-01-27T00:03:35.778Z,35.20
2018-01-27T00:06:02.426Z,35.47
2018-01-27T00:08:29.664Z,42.60
2018-01-27T00:10:56.173Z,37.97
2018-01-27T00:13:22.680Z,41.37
2018-01-27T00:15:49.196Z,32.60
2018-01-27T00:18:15.651Z,33.13
2018-01-27T00:20:42.170Z,29.17
2018-01-27T00:23:09.301Z,37.87
2018-01-27T00:25:36.483Z,30.43
2018-01-27T00:28:04.202Z,43.20
2018-01-27T00:30:30.644Z,37.60
2018-01-27T00:32:57.150Z,40.93
2018-01-27T00:35:23.574Z,24.77
2018-01-27T00:37:50.043Z,29.77
2018-01-27T00:40:16.486Z,31.93
2018-01-27T00:42:42.932Z,33.17
2018-01-27T00:45:09.399Z,29.53
2018-01-27T00:47:35.875Z,30.60
2018-01-27T00:50:03.421Z,34.53
2018-01-27T00:52:29.947Z,48.03
2018-01-27T00:54:56.406Z,28.67
2018-01-27T00:57:22.842Z,29.60
2018-01-27T00:59:50.080Z,49.50
2018-01-27T01:02:16.717Z,29.83
2018-01-27T01:04:43.203Z,44.87
2018-01-27T01:07:09.635Z,36.53
2018-01-27T01:09:36.196Z,42.63
2018-01-27T01:12:02.971Z,41.17
2018-01-27T01:14:29.431Z,37.57
2018-01-27T01:16:55.949Z,39.57
2018-01-27T01:19:23.868Z,41.97
2018-01-27T01:21:51.007Z,41.53
2018-01-27T01:24:17.453Z,32.80
2018-01-27T01:26:44.650Z,37.60
2018-01-27T01:29:11.055Z,37.80
2018-01-27T01:31:37.488Z,34.93
2018-01-27T01:34:04.417Z,32.80
2018-01-27T01:36:30.921Z,28.80
2018-01-27T01:38:57.384Z,33.83
2018-01-27T01:41:23.867Z,37.97
2018-01-27T01:43:56.383Z,38.70
2018-01-27T01:46:23.599Z,37.90
2018-01-27T01:48:50.003Z,29.73
2018-01-27T01:51:16.426Z,40.90
2018-01-27T01:53:43.643Z,37.53
2018-01-27T01:56:10.102Z,40.87
2018-01-27T01:58:36.524Z,46.67
2018-01-27T02:01:03.070Z,39.60
2018-01-27T02:03:29.552Z,58.33
2018-01-27T02:05:55.954Z,35.40
2018-01-27T02:08:22.378Z,33.60
2018-01-27T02:10:48.822Z,38.43
2018-01-27T02:13:15.296Z,34.70
2018-01-27T02:15:42.560Z,36.23
2018-01-27T02:18:08.948Z,38.80
2018-01-27T02:20:36.118Z,55.93
2018-01-27T02:23:03.410Z,50.80
2018-01-27T02:25:29.846Z,44.90
2018-01-27T02:27:56.314Z,46.13
2018-01-27T02:30:22.900Z,54.13
2018-01-27T02:32:49.330Z,50.90
2018-01-27T02:35:15.871Z,54.20
2018-01-27T02:37:42.267Z,55.30
2018-01-27T02:40:09.437Z,87.90
2018-01-27T02:42:35.866Z,50.97
2018-01-27T02:45:02.409Z,83.90
2018-01-27T02:47:28.818Z,63.63
2018-01-27T02:49:55.239Z,53.47
2018-01-27T02:52:21.727Z,59.13
2018-01-27T02:54:48.202Z,56.53
2018-01-27T02:57:14.624Z,52.90
2018-01-27T02:59:41.051Z,62.83
2018-01-27T03:02:08.236Z,63.53
2018-01-27T03:04:34.684Z,57.07
2018-01-27T03:07:01.890Z,67.27
2018-01-27T03:09:28.329Z,50.93
2018-01-27T03:11:54.800Z,59.97
2018-01-27T03:14:21.195Z,83.73
2018-01-27T03:16:47.642Z,56.00
2018-01-27T03:19:14.125Z,62.90
2018-01-27T03:21:40.587Z,59.40
2018-01-27T03:24:06.997Z,60.43
2018-01-27T03:26:33.582Z,67.80
2018-01-27T03:29:00.764Z,52.87
2018-01-27T03:31:27.390Z,77.93
2018-01-27T03:33:53.819Z,83.83
2018-01-27T03:36:20.234Z,68.30
2018-01-27T03:38:46.677Z,77.33
2018-01-27T03:41:13.802Z,93.37
2018-01-27T03:43:40.269Z,87.20
2018-01-27T03:46:06.700Z,105.93
2018-01-27T03:48:33.871Z,96.23
2018-01-27T03:51:01.022Z,98.17
2018-01-27T03:53:27.532Z,105.23
2018-01-27T03:55:54.732Z,110.70
2018-01-27T03:58:21.886Z,132.40
2018-01-27T04:00:49.144Z,137.60
2018-01-27T04:03:16.296Z,141.47
2018-01-27T04:05:42.732Z,119.27
2018-01-27T04:08:09.167Z,151.10
2018-01-27T04:10:35.614Z,158.33
2018-01-27T04:13:02.050Z,139.40
2018-01-27T04:15:28.478Z,190.47
2018-01-27T04:17:54.948Z,154.63
2018-01-27T04:20:21.357Z,177.90
2018-01-27T04:22:47.822Z,195.63
2018-01-27T04:25:14.231Z,211.90
2018-01-27T04:27:40.743Z,164.87
2018-01-27T04:30:07.160Z,181.70
2018-01-27T04:32:33.624Z,205.83
2018-01-27T04:35:00.133Z,189.10
2018-01-27T04:37:26.592Z,173.47
2018-01-27T04:39:53.020Z,185.97
2018-01-27T04:42:19.456Z,213.07
2018-01-27T04:44:45.883Z,209.93
2018-01-27T04:47:13.116Z,206.97
2018-01-27T04:49:39.587Z,215.57
2018-01-27T04:52:06.078Z,210.20
2018-01-27T04:54:32.804Z,186.80
2018-01-27T04:56:59.253Z,208.50
2018-01-27T04:59:26.390Z,185.10
2018-01-27T05:01:53.583Z,157.20
2018-01-27T05:04:20.006Z,199.23
2018-01-27T05:06:47.212Z,198.00
2018-01-27T05:09:13.838Z,221.73
2018-01-27T05:11:40.299Z,177.87
2018-01-27T05:14:06.740Z,179.83
2018-01-27T05:16:33.549Z,183.67
2018-01-27T05:19:00.003Z,156.63
2018-01-27T05:21:26.425Z,197.37
2018-01-27T05:23:52.979Z,197.47
2018-01-27T05:26:19.381Z,165.33
2018-01-27T05:28:45.826Z,173.23
2018-01-27T05:31:12.237Z,179.53
2018-01-27T05:33:38.697Z,194.80
2018-01-27T05:36:05.241Z,179.03
2018-01-27T05:38:31.692Z,173.60
2018-01-27T05:40:58.170Z,194.40
2018-01-27T05:43:25.111Z,205.27
2018-01-27T05:45:51.590Z,196.33
2018-01-27T05:48:17.977Z,186.87
2018-01-27T05:50:45.200Z,177.77
2018-01-27T05:53:11.623Z,193.70
2018-01-27T05:55:38.284Z,105.37
2018-01-27T05:58:05.413Z,170.93
2018-01-27T06:00:31.911Z,213.20
2018-01-27T06:02:58.331Z,198.43
2018-01-27T06:05:24.802Z,178.50
2018-01-27T06:07:51.332Z,201.23
2018-01-27T06:10:17.922Z,158.80
2018-01-27T06:12:45.139Z,241.60
2018-01-27T06:15:11.606Z,175.23
2018-01-27T06:17:39.308Z,181.57
2018-01-27T06:20:05.811Z,240.33
2018-01-27T06:22:32.239Z,214.67
2018-01-27T06:24:58.774Z,238.73
2018-01-27T06:27:25.254Z,238.97
2018-01-27T06:29:52.422Z,240.77
2018-01-27T06:32:19.607Z,262.03
2018-01-27T06:34:46.194Z,247.37
2018-01-27T06:37:12.643Z,239.70
2018-01-27T06:39:39.126Z,213.70
2018-01-27T06:42:05.597Z,257.77
2018-01-27T06:44:32.089Z,201.07
2018-01-27T06:46:59.318Z,246.30
2018-01-27T06:49:25.823Z,257.37
2018-01-27T06:51:53.115Z,250.37
2018-01-27T06:54:19.822Z,239.90
2018-01-27T06:56:47.139Z,229.43
2018-01-27T06:59:13.830Z,228.83
2018-01-27T07:01:41.310Z,222.40
2018-01-27T07:04:08.701Z,220.23
2018-01-27T07:06:35.334Z,248.53
2018-01-27T07:09:03.212Z,201.63
2018-01-27T07:11:30.057Z,239.33
2018-01-27T07:13:57.589Z,265.43
2018-01-27T07:16:24.304Z,262.57
2018-01-27T07:18:52.258Z,227.97
2018-01-27T07:21:19.042Z,240.30
2018-01-27T07:23:45.891Z,246.57
2018-01-27T07:26:12.647Z,256.67
2018-01-27T07:28:39.457Z,264.70
2018-01-27T07:31:08.660Z,243.87
2018-01-27T07:33:35.123Z,238.27
2018-01-27T07:36:01.793Z,213.77
2018-01-27T07:38:28.339Z,227.70
2018-01-27T07:40:54.903Z,197.90
2018-01-27T07:43:21.371Z,237.80
2018-01-27T07:45:47.971Z,189.13
2018-01-27T07:48:15.351Z,174.90
2018-01-27T07:50:42.295Z,200.87
2018-01-27T07:53:08.872Z,184.20
2018-01-27T07:55:36.220Z,187.13
2018-01-27T07:58:03.985Z,187.10
2018-01-27T08:00:30.422Z,150.60
2018-01-27T08:02:56.902Z,156.00
2018-01-27T08:05:23.587Z,139.77
2018-01-27T08:07:50.220Z,149.90
2018-01-27T08:10:16.902Z,122.90
2018-01-27T08:12:43.633Z,131.37
2018-01-27T08:15:10.498Z,117.33
2018-01-27T08:17:37.365Z,109.97
2018-01-27T08:20:04.373Z,117.70
2018-01-27T08:22:32.176Z,100.97
2018-01-27T08:24:58.771Z,100.33
2018-01-27T08:27:25.343Z,88.07
2018-01-27T08:29:52.731Z,88.17
2018-01-27T08:32:20.164Z,71.73
2018-01-27T08:34:47.003Z,85.90
2018-01-27T08:37:14.430Z,97.43
2018-01-27T08:39:42.552Z,80.57
2018-01-27T08:42:09.131Z,83.37
2018-01-27T08:44:35.826Z,77.10
2018-01-27T08:47:03.486Z,68.40
2018-01-27T08:49:30.771Z,75.80
2018-01-27T08:51:57.304Z,81.53
2018-01-27T08:54:23.931Z,72.17
2018-01-27T08:56:50.491Z,69.93
2018-01-27T08:59:17.056Z,81.93
2018-01-27T09:01:43.611Z,81.17
2018-01-27T09:04:10.118Z,76.27
2018-01-27T09:06:37.377Z,85.67
2018-01-27T09:09:03.934Z,64.87
2018-01-27T09:11:30.562Z,71.30
2018-01-27T09:13:59.085Z,69.03
2018-01-27T09:16:25.637Z,69.43
2018-01-27T09:18:52.146Z,59.67
2018-01-27T09:21:18.743Z,65.17
2018-01-27T09:23:45.281Z,57.90
2018-01-27T09:26:11.919Z,56.90
2018-01-27T09:28:38.731Z,61.47
2018-01-27T09:31:06.718Z,56.83
2018-01-27T09:33:33.942Z,56.60
2018-01-27T09:36:00.508Z,47.57
2018-01-27T09:38:27.366Z,51.13
2018-01-27T09:40:53.960Z,50.23
2018-01-27T09:43:20.586Z,44.20
2018-01-27T09:45:48.168Z,48.47
2018-01-27T09:48:15.023Z,39.20
2018-01-27T09:50:42.443Z,33.33
2018-01-27T09:53:09.989Z,33.43
2018-01-27T09:55:37.260Z,36.23
2018-01-27T09:58:04.574Z,42.17
2018-01-27T10:00:31.152Z,34.57
2018-01-27T10:03:04.772Z,29.50
2018-01-27T10:05:31.375Z,41.00
2018-01-27T10:07:58.971Z,32.40
2018-01-27T10:10:25.676Z,36.60
2018-01-27T10:12:53.286Z,31.77
2018-01-27T10:15:20.214Z,32.07
2018-01-27T10:17:46.954Z,45.57
2018-01-27T10:20:13.532Z,37.83
2018-01-27T10:22:40.223Z,31.00
2018-01-27T10:25:06.860Z,32.40
2018-01-27T10:27:34.053Z,35.40
2018-01-27T10:30:00.588Z,35.37
2018-01-27T10:32:28.212Z,46.20
2018-01-27T10:34:54.913Z,45.83
2018-01-27T10:37:21.815Z,35.03
2018-01-27T10:39:48.336Z,40.33
2018-01-27T10:42:14.873Z,32.20
2018-01-27T10:44:41.482Z,36.80
2018-01-27T10:47:08.044Z,31.13
2018-01-27T10:49:35.404Z,31.60
2018-01-27T10:52:02.071Z,34.17
2018-01-27T10:54:28.699Z,37.73
2018-01-27T10:56:55.284Z,32.10
2018-01-27T10:59:22.633Z,36.23
2018-01-27T11:01:49.390Z,33.53
2018-01-27T11:04:15.887Z,36.60
2018-01-27T11:06:43.144Z,33.63
2018-01-27T11:09:09.765Z,28.43
2018-01-27T11:11:36.315Z,29.67
2018-01-27T11:14:02.868Z,29.03
2018-01-27T11:16:31.173Z,35.80
2018-01-27T11:18:58.481Z,31.93
2018-01-27T11:21:25.457Z,30.73
2018-01-27T11:23:52.350Z,40.63
2018-01-27T11:26:19.205Z,33.87
2018-01-27T11:28:46.503Z,33.60
2018-01-27T11:31:13.851Z,31.90
2018-01-27T11:33:41.094Z,28.70
2018-01-27T11:36:07.599Z,28.90
2018-01-27T11:38:34.974Z,30.80
2018-01-27T11:41:02.065Z,31.00
2018-01-27T11:43:28.626Z,31.77
2018-01-27T11:45:55.459Z,31.23
2018-01-27T11:48:22.077Z,39.10
2018-01-27T11:50:48.648Z,30.50
2018-01-27T11:53:15.196Z,31.20
2018-01-27T11:55:41.698Z,27.30
2018-01-27T11:58:09.061Z,26.53
2018-01-27T12:00:35.544Z,28.20
2018-01-27T12:03:02.163Z,31.50
2018-01-27T12:05:29.410Z,27.80
2018-01-27T12:07:55.876Z,30.57
2018-01-27T12:10:22.409Z,25.00
2018-01-27T12:12:48.917Z,25.03
2018-01-27T12:15:15.507Z,26.67
2018-01-27T12:17:42.791Z,25.43
2018-01-27T12:20:09.405Z,28.10
2018-01-27T12:22:35.925Z,27.13
2018-01-27T12:25:02.479Z,31.23
2018-01-27T12:27:29.036Z,28.80
2018-01-27T12:29:55.571Z,24.07
2018-01-27T12:32:22.073Z,30.13
2018-01-27T12:34:48.655Z,28.27
2018-01-27T12:37:15.942Z,28.93
2018-01-27T12:39:42.662Z,31.07
2018-01-27T12:42:10.002Z,29.20
2018-01-27T12:44:37.490Z,20.50
2018-01-27T12:47:04.829Z,30.53
2018-01-27T12:49:31.331Z,24.03
2018-01-27T12:51:57.900Z,24.70
2018-01-27T12:54:24.488Z,19.20
2018-01-27T12:56:51.426Z,25.70
2018-01-27T12:59:18.083Z,24.70
2018-01-27T13:01:45.381Z,20.57
2018-01-27T13:04:12.067Z,25.77
2018-01-27T13:06:40.213Z,27.63
2018-01-27T13:09:07.497Z,26.03
2018-01-27T13:11:35.987Z,23.90
2018-01-27T13:14:02.716Z,22.17
2018-01-27T13:16:29.234Z,23.03
2018-01-27T13:18:55.790Z,24.40
2018-01-27T13:21:23.038Z,26.17
2018-01-27T13:23:49.656Z,23.83
2018-01-27T13:26:16.316Z,25.43
2018-01-27T13:28:43.639Z,30.67
2018-01-27T13:31:11.759Z,24.10
2018-01-27T13:33:38.423Z,18.70
2018-01-27T13:36:05.532Z,24.47
2018-01-27T13:38:32.128Z,20.73
2018-01-27T13:40:58.747Z,20.30
2018-01-27T13:43:25.259Z,25.40
2018-01-27T13:45:52.342Z,27.43
2018-01-27T13:48:19.068Z,28.93
2018-01-27T13:50:46.407Z,25.23
2018-01-27T13:53:12.984Z,26.20
2018-01-27T13:55:39.664Z,22.80
2018-01-27T13:58:06.707Z,21.90
2018-01-27T14:00:33.327Z,21.07
2018-01-27T14:02:59.974Z,17.10
2018-01-27T14:05:26.684Z,19.17
2018-01-27T14:07:53.371Z,20.60
2018-01-27T14:10:21.226Z,21.57
2018-01-27T14:12:47.809Z,20.63
2018-01-27T14:15:14.481Z,25.60
2018-01-27T14:17:41.089Z,21.23
2018-01-27T14:20:08.513Z,21.00
2018-01-27T14:22:36.480Z,18.20
2018-01-27T14:25:04.153Z,16.30
2018-01-27T14:27:31.628Z,13.80
2018-01-27T14:29:58.970Z,16.63
2018-01-27T14:32:26.355Z,15.47
2018-01-27T14:34:52.912Z,15.53
2018-01-27T14:37:20.080Z,16.60
2018-01-27T14:39:46.624Z,14.77
2018-01-27T14:42:13.217Z,15.67
2018-01-27T14:44:39.811Z,19.23
2018-01-27T14:47:06.449Z,12.83
2018-01-27T14:49:33.025Z,14.43
2018-01-27T14:52:06.466Z,15.60
2018-01-27T14:54:33.086Z,18.13
2018-01-27T14:56:59.622Z,16.47
2018-01-27T14:59:26.205Z,16.07
2018-01-27T15:01:54.036Z,16.67
2018-01-27T15:04:20.600Z,14.70
2018-01-27T15:06:47.219Z,17.93
2018-01-27T15:09:13.840Z,13.83
2018-01-27T15:11:40.535Z,17.87
2018-01-27T15:14:07.222Z,18.83
2018-01-27T15:16:35.388Z,17.17
2018-01-27T15:19:01.991Z,20.63
2018-01-27T15:24:23.418Z,17.97
2018-01-27T15:26:49.932Z,18.80
2018-01-27T15:29:16.373Z,16.53
2018-01-27T15:31:45.749Z,23.50
2018-01-27T15:34:13.041Z,14.57
2018-01-27T15:36:39.558Z,14.07
2018-01-27T15:39:06.045Z,16.97
2018-01-27T15:41:33.267Z,19.00
2018-01-27T15:44:00.571Z,16.97
2018-01-27T15:46:27.904Z,23.53
2018-01-27T15:48:58.055Z,16.80
2018-01-27T15:51:24.503Z,15.30
2018-01-27T15:53:50.988Z,18.90
2018-01-27T15:56:18.191Z,17.10
2018-01-27T15:58:44.668Z,14.03
2018-01-27T16:01:11.169Z,22.67
2018-01-27T16:03:38.333Z,14.97
2018-01-27T16:06:05.321Z,19.70
2018-01-27T16:08:31.862Z,16.67
2018-01-27T16:11:00.384Z,21.63
2018-01-27T16:13:27.013Z,15.40
2018-01-27T16:15:53.530Z,17.87
2018-01-27T16:18:20.046Z,16.10
2018-01-27T16:20:46.480Z,15.17
2018-01-27T16:23:12.998Z,22.27
2018-01-27T16:25:39.583Z,22.47
2018-01-27T16:28:06.387Z,16.00
2018-01-27T16:30:32.943Z,17.53
2018-01-27T16:32:59.493Z,15.43
2018-01-27T16:35:26.081Z,16.70
2018-01-27T16:37:53.298Z,16.40
2018-01-27T16:40:19.830Z,17.00
2018-01-27T16:42:46.330Z,14.10
2018-01-27T16:45:12.903Z,12.93
2018-01-27T16:47:40.578Z,13.30
2018-01-27T16:50:07.020Z,15.27
2018-01-27T16:52:33.389Z,11.37
2018-01-27T16:54:59.776Z,15.53
2018-01-27T16:57:26.192Z,11.23
2018-01-27T16:59:53.406Z,12.13
2018-01-27T17:02:19.795Z,8.50
2018-01-27T17:04:46.137Z,7.43
2018-01-27T17:07:12.547Z,8.07
2018-01-27T17:09:38.969Z,6.13
2018-01-27T17:12:06.426Z,6.47
2018-01-27T17:14:32.801Z,10.23
2018-01-27T17:16:59.268Z,10.00
2018-01-27T17:19:25.646Z,6.37
2018-01-27T17:21:52.808Z,10.00
2018-01-27T17:24:19.900Z,5.50
2018-01-27T17:26:46.305Z,5.80
2018-01-27T17:29:13.480Z,13.33
2018-01-27T17:31:39.824Z,15.60
2018-01-27T17:34:06.799Z,9.07
2018-01-27T17:36:33.227Z,8.80
2018-01-27T17:38:59.680Z,13.20
2018-01-27T17:41:26.119Z,5.17
2018-01-27T17:43:52.557Z,4.37
2018-01-27T17:46:18.911Z,16.80
2018-01-27T17:48:45.305Z,6.73
2018-01-27T17:51:11.672Z,5.60
2018-01-27T17:53:38.854Z,5.10
2018-01-27T17:56:05.918Z,4.10
2018-01-27T17:58:32.350Z,9.17
2018-01-27T18:00:58.760Z,8.23
2018-01-27T18:03:25.171Z,14.30
2018-01-27T18:05:51.568Z,11.53
2018-01-27T18:08:18.684Z,8.03
2018-01-27T18:10:45.095Z,11.90
2018-01-27T18:13:11.519Z,7.80
2018-01-27T18:15:38.682Z,8.23
2018-01-27T18:18:06.498Z,11.90
2018-01-27T18:20:32.996Z,11.20
2018-01-27T18:23:00.096Z,6.27
2018-01-27T18:25:26.551Z,8.83
2018-01-27T18:27:52.906Z,11.87
2018-01-27T18:30:19.278Z,11.07
2018-01-27T18:32:46.450Z,4.47
2018-01-27T18:35:12.796Z,7.53
2018-01-27T18:37:39.199Z,7.87
2018-01-27T18:40:06.093Z,13.50
2018-01-27T18:42:33.259Z,6.27
2018-01-27T18:45:00.370Z,9.23
2018-01-27T18:47:26.752Z,11.97
2018-01-27T18:49:53.100Z,5.33
2018-01-27T18:52:19.481Z,9.13
2018-01-27T18:54:45.828Z,6.50
2018-01-27T18:57:12.255Z,7.90
2018-01-27T18:59:39.431Z,6.13
2018-01-27T19:02:06.928Z,6.07
2018-01-27T19:04:34.087Z,6.20
2018-01-27T19:07:00.419Z,4.90
2018-01-27T19:09:26.875Z,7.57
2018-01-27T19:11:53.227Z,13.93
2018-01-27T19:14:19.673Z,5.33
2018-01-27T19:16:46.137Z,7.60
2018-01-27T19:19:12.561Z,11.27
2018-01-27T19:21:38.963Z,7.30
2018-01-27T19:24:06.045Z,11.73
2018-01-27T19:26:33.608Z,7.63
2018-01-27T19:29:00.038Z,9.03
2018-01-27T19:31:26.497Z,13.83
2018-01-27T19:33:52.930Z,10.13
2018-01-27T19:36:19.364Z,8.63
2018-01-27T19:38:46.052Z,3.43
2018-01-27T19:41:12.508Z,8.60
2018-01-27T19:43:39.831Z,4.80
2018-01-27T19:46:06.730Z,10.27
2018-01-27T19:48:33.193Z,7.10
2018-01-27T19:51:00.607Z,4.77
2018-01-27T19:53:27.019Z,6.33
2018-01-27T19:55:54.935Z,6.23
2018-01-27T19:58:22.108Z,4.90
2018-01-27T20:00:48.539Z,10.60
2018-01-27T20:03:15.254Z,10.10
2018-01-27T20:05:41.687Z,9.10
2018-01-27T20:08:08.067Z,8.53
2018-01-27T20:10:35.147Z,3.53
2018-01-27T20:13:01.535Z,6.23
2018-01-27T20:15:28.000Z,7.30
2018-01-27T20:17:54.453Z,5.60
2018-01-27T20:20:20.835Z,7.73
2018-01-27T20:22:47.223Z,6.10
2018-01-27T20:25:13.643Z,8.80
2018-01-27T20:27:40.037Z,3.93
2018-01-27T20:30:06.828Z,8.50
2018-01-27T20:32:34.004Z,2.80
2018-01-27T20:35:00.443Z,3.70
2018-01-27T20:37:27.714Z,4.13
2018-01-27T20:39:54.158Z,7.23
2018-01-27T20:42:21.334Z,5.67
2018-01-27T20:44:47.797Z,7.07
2018-01-27T20:47:14.967Z,4.30
2018-01-27T20:49:41.456Z,6.20
2018-01-27T20:52:07.927Z,7.13
2018-01-27T20:54:35.163Z,4.80
2018-01-27T20:57:01.536Z,6.30
2018-01-27T20:59:27.987Z,3.83
2018-01-27T21:01:54.466Z,6.30
2018-01-27T21:04:20.947Z,5.17
2018-01-27T21:06:47.390Z,3.80
2018-01-27T21:09:14.764Z,3.40
2018-01-27T21:11:41.243Z,10.60
2018-01-27T21:14:08.422Z,4.70
2018-01-27T21:16:34.891Z,4.07
2018-01-27T21:19:02.108Z,5.17
2018-01-27T21:21:28.484Z,10.20
2018-01-27T21:23:55.556Z,4.00
2018-01-27T21:26:22.079Z,6.17
2018-01-27T21:28:49.215Z,4.90
2018-01-27T21:31:15.611Z,7.20
2018-01-27T21:33:42.058Z,8.10
2018-01-27T21:36:08.590Z,6.47
2018-01-27T21:38:35.058Z,4.07
2018-01-27T21:41:01.551Z,4.30
2018-01-27T21:43:28.025Z,3.90
2018-01-27T21:45:54.453Z,5.93
2018-01-27T21:48:21.631Z,4.27
2018-01-27T21:50:48.066Z,5.20
2018-01-27T21:53:15.203Z,3.97
2018-01-27T21:55:41.551Z,5.50
2018-01-27T21:58:08.039Z,7.10
2018-01-27T22:00:34.507Z,13.47
2018-01-27T22:03:00.916Z,4.70
2018-01-27T22:05:27.375Z,4.93
2018-01-27T22:07:54.525Z,4.03
2018-01-27T22:10:20.991Z,4.77
2018-01-27T22:12:48.145Z,5.20
2018-01-27T22:15:14.619Z,7.83
2018-01-27T22:17:41.059Z,3.70
2018-01-27T22:20:07.484Z,5.30
2018-01-27T22:22:33.884Z,5.03
2018-01-27T22:25:00.354Z,7.17
2018-01-27T22:27:26.755Z,7.70
2018-01-27T22:29:53.179Z,3.40
2018-01-27T22:32:19.592Z,4.20
2018-01-27T22:34:45.989Z,6.40
2018-01-27T22:37:12.448Z,3.87
2018-01-27T22:39:38.881Z,8.90
2018-01-27T22:42:05.839Z,4.47
2018-01-27T22:44:33.075Z,11.53
2018-01-27T22:46:59.453Z,3.60
2018-01-27T22:49:25.840Z,3.70
2018-01-27T22:51:52.299Z,7.10
2018-01-27T22:54:18.692Z,8.33
2018-01-27T22:56:45.836Z,6.00
2018-01-27T22:59:12.233Z,3.40
2018-01-27T23:01:38.639Z,4.50
2018-01-27T23:04:06.452Z,11.37
2018-01-27T23:06:32.874Z,5.20
2018-01-27T23:08:59.277Z,5.40
2018-01-27T23:11:25.668Z,3.60
2018-01-27T23:13:52.096Z,6.00
2018-01-27T23:16:18.491Z,6.37
2018-01-27T23:18:44.914Z,4.70
2018-01-27T23:21:11.300Z,3.20
2018-01-27T23:23:37.964Z,3.80
2018-01-27T23:26:05.625Z,4.83
2018-01-27T23:28:32.817Z,5.00
2018-01-27T23:30:59.221Z,9.67
2018-01-27T23:33:25.650Z,4.50
2018-01-27T23:35:52.084Z,8.33
2018-01-27T23:38:18.478Z,7.17
2018-01-27T23:40:44.894Z,8.47
2018-01-27T23:43:11.256Z,11.17
2018-01-27T23:45:37.653Z,5.60
2018-01-27T23:48:05.206Z,9.37
2018-01-27T23:50:31.640Z,9.00
2018-01-27T23:52:58.819Z,10.10
2018-01-27T23:55:25.248Z,8.80
2018-01-27T23:57:52.372Z,12.30
